Time;durP1;ratioP1;P1;durP2;ratioP2;P2;SDS_P1;SDS_P2;PMS_P1;PMS_P2;Temp;Humidity;BMP_temperature;BMP_pressure;BME280_temperature;BME280_humidity;BME280_pressure;Samples;Min_cycle;Max_cycle;Signal;HPM_P1;HPM_P2
2024/02/27 00:04:46;;;;;;;1.88;1.48;;;14.30;99.90;;;;;;10471870;28;20546;-60
2024/02/27 00:09:48;;;;;;;4.20;1.83;;;14.10;99.90;;;;;;10476738;28;20055;-61
2024/02/27 00:14:52;;;;;;;5.18;1.70;;;14.00;99.90;;;;;;10482518;28;22527;-62
2024/02/27 00:19:54;;;;;;;3.85;1.40;;;14.00;99.90;;;;;;10479914;28;20088;-60
2024/02/27 00:24:56;;;;;;;4.57;1.60;;;14.00;99.90;;;;;;10482502;28;20056;-60
2024/02/27 00:30:00;;;;;;;5.17;1.70;;;14.00;99.90;;;;;;10475067;28;20198;-61
2024/02/27 00:35:02;;;;;;;4.20;1.65;;;13.80;99.90;;;;;;10479108;28;20475;-60
2024/02/27 00:40:05;;;;;;;2.90;1.13;;;13.90;99.90;;;;;;10486100;28;20134;-60
2024/02/27 00:45:08;;;;;;;4.97;1.60;;;13.90;99.90;;;;;;10484421;28;23055;-61
2024/02/27 00:50:11;;;;;;;4.63;1.35;;;13.90;99.90;;;;;;10484688;28;20052;-61
2024/02/27 00:55:13;;;;;;;4.65;1.60;;;13.90;99.90;;;;;;10483257;28;20072;-61
2024/02/27 01:00:18;;;;;;;3.20;1.48;;;13.90;99.90;;;;;;10489329;28;20047;-60
2024/02/27 01:05:20;;;;;;;3.78;1.55;;;13.80;99.90;;;;;;10491437;28;20415;-61
2024/02/27 01:10:22;;;;;;;3.63;1.70;;;13.90;99.90;;;;;;10487273;28;20060;-61
2024/02/27 01:15:25;;;;;;;5.83;1.50;;;13.90;99.90;;;;;;10489188;28;22504;-61
2024/02/27 01:20:27;;;;;;;2.50;1.98;;;13.70;99.90;;;;;;10484960;28;20055;-63
2024/02/27 01:25:29;;;;;;;4.97;1.53;;;13.50;99.90;;;;;;10486677;28;20047;-60
2024/02/27 01:30:33;;;;;;;2.97;2.30;;;13.70;99.90;;;;;;10479749;28;20060;-60
2024/02/27 01:35:35;;;;;;;4.63;1.63;;;13.60;99.90;;;;;;10479293;28;20058;-60
2024/02/27 01:40:37;;;;;;;1.47;1.10;;;13.80;99.90;;;;;;10474847;28;20186;-60
2024/02/27 01:45:40;;;;;;;3.63;1.83;;;13.70;99.90;;;;;;10476667;28;20900;-61
2024/02/27 01:50:45;;;;;;;3.78;1.35;;;13.60;99.90;;;;;;10477283;28;20048;-60
2024/02/27 01:55:48;;;;;;;7.22;2.17;;;13.70;99.90;;;;;;10481214;28;20500;-60
2024/02/27 02:00:52;;;;;;;3.60;1.30;;;13.60;99.90;;;;;;10485453;28;20175;-61
2024/02/27 02:05:55;;;;;;;2.20;1.08;;;13.60;99.90;;;;;;10478410;28;20049;-61
2024/02/27 02:10:58;;;;;;;4.20;1.35;;;13.70;99.90;;;;;;10474654;28;20056;-61
2024/02/27 02:16:01;;;;;;;4.60;1.30;;;13.50;99.90;;;;;;10475530;28;20899;-61
2024/02/27 02:21:05;;;;;;;2.20;1.00;;;13.60;99.90;;;;;;10473887;28;20056;-60
2024/02/27 02:26:08;;;;;;;7.53;1.42;;;13.40;99.90;;;;;;10477448;28;20056;-60
2024/02/27 02:31:10;;;;;;;;;;;13.50;99.90;;;;;;10480226;28;20084;-60
2024/02/27 02:36:13;;;;;;;3.58;1.08;;;13.70;99.90;;;;;;10472662;28;19928;-61
2024/02/27 02:41:15;;;;;;;4.70;0.95;;;13.60;99.90;;;;;;10482821;28;20050;-61
2024/02/27 02:46:17;;;;;;;5.60;0.80;;;13.80;99.90;;;;;;10478895;28;20048;-61
2024/02/27 02:51:21;;;;;;;6.17;1.27;;;13.70;99.90;;;;;;10471314;28;20075;-61
2024/02/27 02:56:23;;;;;;;2.83;1.00;;;13.70;99.90;;;;;;10475202;28;20048;-61
2024/02/27 03:01:25;;;;;;;2.43;0.90;;;13.70;99.90;;;;;;10472952;28;20056;-61
2024/02/27 03:06:28;;;;;;;5.80;1.08;;;13.60;99.90;;;;;;10485198;28;20624;-61
2024/02/27 03:11:30;;;;;;;6.40;1.38;;;13.60;99.90;;;;;;10478101;28;20062;-60
2024/02/27 03:16:32;;;;;;;7.90;0.90;;;13.50;99.90;;;;;;10484112;28;20078;-64
2024/02/27 03:21:36;;;;;;;7.80;0.90;;;13.70;99.90;;;;;;10478703;28;20054;-61
2024/02/27 03:26:38;;;;;;;3.17;0.80;;;13.50;99.90;;;;;;10477253;28;20432;-61
2024/02/27 03:31:40;;;;;;;3.73;1.10;;;13.60;99.90;;;;;;10473910;28;20064;-60
2024/02/27 03:36:43;;;;;;;1.60;0.97;;;13.50;99.90;;;;;;10474750;28;20064;-60
2024/02/27 03:41:45;;;;;;;4.07;0.95;;;13.50;99.90;;;;;;10478422;28;20885;-61
2024/02/27 03:46:47;;;;;;;3.45;0.77;;;13.30;99.90;;;;;;10475400;28;20951;-60
2024/02/27 03:51:52;;;;;;;5.93;1.07;;;13.50;99.90;;;;;;10481771;28;20059;-61
2024/02/27 03:56:54;;;;;;;3.05;0.70;;;13.40;99.90;;;;;;10477265;28;20120;-60
2024/02/27 04:15:30;;;;;;;3.30;1.10;;;13.00;99.90;;;;;;10491899;28;21124;-61
2024/02/27 04:20:32;;;;;;;4.90;1.10;;;13.30;99.90;;;;;;10503963;28;20065;-59
2024/02/27 04:25:34;;;;;;;5.15;1.10;;;13.20;99.90;;;;;;10512484;28;20067;-62
2024/02/27 04:30:38;;;;;;;7.63;0.98;;;13.20;99.90;;;;;;10508414;28;20055;-60
2024/02/27 04:35:40;;;;;;;3.85;1.00;;;13.20;99.90;;;;;;10513389;28;20059;-61
2024/02/27 04:40:42;;;;;;;2.58;0.70;;;13.40;99.90;;;;;;10510309;28;20420;-61
2024/02/27 04:45:46;;;;;;;6.27;1.20;;;13.20;99.90;;;;;;10511006;28;20805;-61
2024/02/27 04:50:48;;;;;;;3.92;1.13;;;13.40;99.90;;;;;;10511286;28;20055;-61
2024/02/27 04:55:50;;;;;;;3.87;1.13;;;13.70;99.90;;;;;;10506950;28;20474;-61
2024/02/27 05:00:53;;;;;;;2.47;1.03;;;13.70;99.90;;;;;;10507499;28;20052;-61
2024/02/27 05:05:56;;;;;;;8.10;1.48;;;13.80;99.90;;;;;;10503377;28;20675;-62
2024/02/27 05:10:58;;;;;;;5.85;1.33;;;13.70;99.90;;;;;;10510014;28;20059;-60
2024/02/27 05:16:01;;;;;;;5.63;2.20;;;13.70;99.90;;;;;;10498749;28;20895;-59
2024/02/27 05:21:05;;;;;;;4.43;1.35;;;13.70;99.90;;;;;;10502784;28;20040;-60
2024/02/27 05:26:07;;;;;;;4.95;2.00;;;13.70;99.90;;;;;;10478631;28;20061;-60
2024/02/27 05:31:24;;;;;;;5.10;1.60;;;13.90;99.90;;;;;;10474241;28;20845;-60
2024/02/27 05:36:28;;;;;;;2.40;1.20;;;13.90;99.90;;;;;;10473531;28;20064;-61
2024/02/27 05:41:30;;;;;;;5.35;1.48;;;14.20;99.90;;;;;;10477609;28;20140;-61
2024/02/27 05:46:34;;;;;;;2.30;1.33;;;14.00;99.90;;;;;;10468368;28;20052;-60
2024/02/27 05:51:39;;;;;;;2.72;0.98;;;14.00;99.90;;;;;;10470435;28;20217;-60
2024/02/27 05:56:41;;;;;;;2.58;1.40;;;14.10;99.90;;;;;;10477260;28;20649;-61
2024/02/27 06:01:45;;;;;;;4.03;1.30;;;14.10;99.90;;;;;;10469985;28;20508;-60
2024/02/27 06:06:47;;;;;;;6.18;1.40;;;14.00;99.90;;;;;;10471321;28;20052;-61
2024/02/27 06:11:49;;;;;;;2.37;1.13;;;14.20;99.90;;;;;;10475778;28;20063;-61
2024/02/27 06:16:52;;;;;;;1.90;1.30;;;14.20;99.90;;;;;;10468092;28;20561;-60
2024/02/27 06:22:14;;;;;;;5.78;1.38;;;14.20;99.90;;;;;;10476476;28;20055;-61
2024/02/27 06:27:16;;;;;;;3.33;1.40;;;14.10;99.90;;;;;;10466935;28;20072;-62
2024/02/27 06:32:20;;;;;;;5.80;1.83;;;14.10;99.90;;;;;;10472172;28;20938;-60
2024/02/27 06:37:22;;;;;;;6.60;1.60;;;14.00;99.90;;;;;;10465406;28;20133;-63
2024/02/27 06:42:24;;;;;;;3.88;1.95;;;14.50;99.90;;;;;;10467678;28;20052;-61
2024/02/27 06:47:28;;;;;;;4.75;1.38;;;14.00;99.90;;;;;;10452289;28;20086;-60
2024/02/27 06:52:30;;;;;;;8.77;2.38;;;14.10;99.90;;;;;;10456852;28;20139;-60
2024/02/27 06:57:32;;;;;;;2.53;1.25;;;14.10;99.90;;;;;;10464968;28;20198;-61
2024/02/27 07:02:35;;;;;;;4.78;2.38;;;14.30;99.90;;;;;;10460389;28;20052;-61
2024/02/27 07:07:37;;;;;;;8.90;1.77;;;14.40;99.90;;;;;;10449620;28;20068;-61
2024/02/27 07:12:41;;;;;;;5.10;1.17;;;14.30;99.90;;;;;;10455874;28;20052;-61
2024/02/27 07:17:45;;;;;;;5.47;1.90;;;14.50;99.90;;;;;;10467980;28;20091;-61
2024/02/27 07:22:48;;;;;;;5.03;1.20;;;14.30;99.90;;;;;;10461983;28;20170;-60
2024/02/27 07:27:50;;;;;;;11.60;1.52;;;14.30;99.90;;;;;;10460610;28;20057;-60
2024/02/27 07:32:54;;;;;;;4.07;1.80;;;14.30;99.90;;;;;;10460211;28;20562;-60
2024/02/27 07:37:56;;;;;;;5.47;2.10;;;14.40;99.90;;;;;;10460807;28;20463;-62
2024/02/27 07:42:58;;;;;;;3.33;1.38;;;14.40;99.90;;;;;;10457465;28;20047;-60
2024/02/27 07:48:01;;;;;;;8.37;1.93;;;14.90;99.90;;;;;;10457391;28;20059;-61
2024/02/27 07:53:04;;;;;;;6.97;2.53;;;15.10;99.90;;;;;;10469162;28;20087;-62
2024/02/27 07:58:06;;;;;;;5.22;2.35;;;15.10;99.90;;;;;;10467418;28;20052;-61
2024/02/27 08:03:09;;;;;;;3.90;2.00;;;15.00;99.90;;;;;;10466754;28;20392;-60
2024/02/27 08:08:13;;;;;;;4.75;1.23;;;14.80;99.90;;;;;;10457741;28;20059;-61
2024/02/27 08:13:17;;;;;;;5.45;3.13;;;14.70;99.90;;;;;;10460785;28;20045;-61
2024/02/27 08:18:20;;;;;;;6.13;2.95;;;14.70;99.90;;;;;;10462934;28;20071;-60
2024/02/27 08:23:22;;;;;;;5.30;2.58;;;14.80;99.90;;;;;;10456990;28;20047;-62
2024/02/27 08:28:25;;;;;;;4.97;2.80;;;15.00;99.90;;;;;;10461018;28;20045;-60
2024/02/27 08:33:28;;;;;;;5.38;3.50;;;14.70;99.90;;;;;;10469811;28;20415;-60
2024/02/27 08:38:30;;;;;;;4.80;2.88;;;14.70;99.90;;;;;;10463364;28;20734;-61
2024/02/27 08:43:32;;;;;;;7.70;3.08;;;15.00;99.90;;;;;;10463443;28;20045;-61
2024/02/27 08:48:37;;;;;;;4.27;2.53;;;15.00;99.90;;;;;;10460568;28;20049;-61
2024/02/27 08:53:39;;;;;;;4.22;3.22;;;15.10;99.90;;;;;;10459696;28;20154;-60
2024/02/27 08:58:42;;;;;;;5.57;2.47;;;14.90;99.90;;;;;;10468235;28;20060;-60
2024/02/27 09:03:46;;;;;;;5.45;3.20;;;14.80;99.90;;;;;;10471012;28;20077;-62
2024/02/27 09:08:47;;;;;;;5.32;3.30;;;15.00;99.90;;;;;;10472014;28;20048;-61
2024/02/27 09:13:49;;;;;;;4.20;3.03;;;14.80;99.90;;;;;;10464313;28;20102;-60
2024/02/27 09:18:53;;;;;;;4.20;3.13;;;14.80;99.90;;;;;;10463719;28;20060;-61
2024/02/27 09:23:55;;;;;;;3.80;1.95;;;14.90;99.90;;;;;;10465635;28;20170;-60
2024/02/27 09:28:57;;;;;;;4.68;3.40;;;15.10;99.90;;;;;;10459523;28;20095;-61
2024/02/27 09:34:01;;;;;;;6.65;3.08;;;15.10;99.90;;;;;;10469147;28;20483;-60
2024/02/27 09:39:03;;;;;;;5.22;2.95;;;15.30;99.90;;;;;;10463462;28;20734;-59
2024/02/27 09:44:05;;;;;;;4.18;2.80;;;15.10;99.90;;;;;;10460299;28;20048;-60
2024/02/27 09:49:09;;;;;;;1.37;1.10;;;15.00;99.90;;;;;;10445713;28;20084;-61
2024/02/27 09:54:13;;;;;;;3.80;2.20;;;15.20;99.90;;;;;;10451915;28;20559;-59
2024/02/27 09:59:15;;;;;;;8.52;3.13;;;15.40;99.90;;;;;;10466429;28;20418;-60
2024/02/27 10:04:20;;;;;;;3.33;1.83;;;15.30;99.90;;;;;;10463553;28;20049;-62
2024/02/27 10:09:24;;;;;;;4.68;3.45;;;15.40;99.90;;;;;;10459482;28;20060;-61
2024/02/27 10:14:32;;;;;;;4.68;2.45;;;15.40;99.90;;;;;;10462180;28;20132;-60
2024/02/27 10:19:36;;;;;;;9.15;3.75;;;15.40;99.90;;;;;;10462345;28;20040;-60
2024/02/27 10:24:38;;;;;;;2.50;2.20;;;15.20;99.90;;;;;;10455215;28;20803;-61
2024/02/27 10:29:41;;;;;;;3.67;1.97;;;15.10;99.90;;;;;;10456369;28;20068;-61
2024/02/27 10:34:47;;;;;;;3.17;2.35;;;15.30;99.90;;;;;;10456498;28;20072;-61
2024/02/27 10:39:49;;;;;;;3.15;1.80;;;15.50;99.90;;;;;;10455075;28;20519;-61
2024/02/27 10:44:51;;;;;;;6.17;3.70;;;15.70;99.90;;;;;;10461145;28;20162;-60
2024/02/27 10:49:54;;;;;;;4.27;2.60;;;15.10;99.90;;;;;;10459853;28;20150;-60
2024/02/27 10:54:59;;;;;;;5.70;3.45;;;15.30;99.90;;;;;;10447883;28;20448;-60
2024/02/27 11:00:02;;;;;;;7.55;2.70;;;15.30;99.90;;;;;;10457759;28;20094;-61
2024/02/27 11:05:06;;;;;;;4.97;2.47;;;15.60;99.90;;;;;;10457920;28;20051;-60
2024/02/27 11:10:11;;;;;;;7.55;3.70;;;15.60;99.90;;;;;;10452142;28;20099;-61
2024/02/27 11:15:16;;;;;;;5.07;3.03;;;15.60;99.90;;;;;;10459741;28;20171;-58
2024/02/27 11:20:20;;;;;;;4.63;3.53;;;15.80;99.90;;;;;;10465762;28;20048;-60
2024/02/27 11:25:23;;;;;;;5.78;3.40;;;15.60;99.90;;;;;;10464456;28;20053;-61
2024/02/27 11:30:26;;;;;;;9.07;3.08;;;15.70;99.90;;;;;;10461515;28;20052;-60
2024/02/27 11:35:31;;;;;;;6.15;3.65;;;15.60;99.90;;;;;;10460345;28;20732;-60
2024/02/27 11:40:47;;;;;;;4.47;3.28;;;15.60;99.90;;;;;;10451079;28;20949;-62
2024/02/27 11:45:49;;;;;;;6.47;4.38;;;15.60;99.90;;;;;;10464359;28;20044;-60
2024/02/27 11:50:53;;;;;;;6.35;3.90;;;15.70;99.90;;;;;;10454679;28;20144;-58
2024/02/27 11:55:56;;;;;;;10.27;4.25;;;15.50;99.90;;;;;;10451551;28;20040;-60
2024/02/27 12:00:58;;;;;;;7.93;4.88;;;15.30;99.90;;;;;;10451215;28;20047;-60
2024/02/27 12:06:05;;;;;;;4.53;2.93;;;15.40;99.90;;;;;;10462827;28;20165;-61
2024/02/27 12:11:13;;;;;;;6.53;3.67;;;15.70;99.90;;;;;;10461444;28;20841;-60
2024/02/27 12:16:23;;;;;;;6.05;3.45;;;15.30;99.90;;;;;;10466333;28;20048;-60
2024/02/27 12:21:30;;;;;;;5.45;2.80;;;15.00;99.90;;;;;;10454466;28;20495;-58
2024/02/27 12:26:32;;;;;;;5.55;2.75;;;13.80;99.90;;;;;;10450576;28;20527;-59
2024/02/27 12:31:34;;;;;;;6.37;2.43;;;13.70;99.90;;;;;;10463911;28;20467;-59
2024/02/27 12:36:38;;;;;;;5.53;2.57;;;12.80;99.90;;;;;;10470214;28;20048;-60
2024/02/27 12:41:41;;;;;;;7.05;2.38;;;12.70;99.90;;;;;;10468400;28;20051;-61
2024/02/27 12:46:44;;;;;;;7.63;2.75;;;13.10;99.90;;;;;;10463719;28;20630;-59
2024/02/27 12:51:49;;;;;;;3.47;1.38;;;13.80;99.90;;;;;;10458790;28;20504;-59
2024/02/27 12:56:52;;;;;;;4.93;2.38;;;14.20;99.90;;;;;;10457208;28;20078;-60
2024/02/27 13:01:55;;;;;;;4.53;2.05;;;14.10;99.90;;;;;;10448994;28;20135;-59
2024/02/27 13:07:00;;;;;;;7.90;1.90;;;13.80;99.90;;;;;;10462064;28;20444;-59
2024/02/27 13:12:06;;;;;;;2.22;1.48;;;14.70;99.90;;;;;;10460458;28;20169;-60
2024/02/27 13:17:08;;;;;;;3.50;1.77;;;14.10;99.90;;;;;;10465104;28;21549;-61
2024/02/27 13:22:11;;;;;;;1.50;1.10;;;14.30;99.90;;;;;;10461575;28;20068;-62
2024/02/27 13:27:13;;;;;;;3.22;1.48;;;13.70;99.90;;;;;;10465518;28;20053;-61
2024/02/27 13:32:15;;;;;;;6.20;1.33;;;13.90;99.90;;;;;;10468332;28;20044;-59
2024/02/27 13:37:19;;;;;;;5.37;1.90;;;14.90;99.90;;;;;;10468105;28;20080;-60
2024/02/27 13:42:22;;;;;;;4.60;1.80;;;15.60;99.90;;;;;;10470166;28;20052;-60
2024/02/27 13:47:24;;;;;;;3.20;1.85;;;15.50;99.90;;;;;;10463538;28;20880;-61
2024/02/27 13:52:28;;;;;;;4.75;1.48;;;15.10;99.90;;;;;;10466664;28;20098;-60
2024/02/27 13:57:30;;;;;;;3.28;1.40;;;15.20;99.90;;;;;;10458569;28;20056;-60
2024/02/27 14:02:34;;;;;;;2.97;1.52;;;15.40;99.90;;;;;;10456877;28;21391;-62
2024/02/27 14:07:38;;;;;;;3.80;1.50;;;17.10;99.90;;;;;;10467267;28;20136;-60
2024/02/27 14:12:40;;;;;;;2.03;1.50;;;17.40;99.90;;;;;;10458744;28;20175;-60
2024/02/27 14:17:42;;;;;;;4.72;1.77;;;17.50;95.50;;;;;;10469619;28;20131;-60
2024/02/27 14:22:46;;;;;;;2.00;1.48;;;17.70;99.90;;;;;;10466628;28;20051;-63
2024/02/27 14:27:48;;;;;;;5.13;1.70;;;17.90;99.90;;;;;;10458745;28;20049;-63
2024/02/27 14:32:50;;;;;;;5.00;1.93;;;18.20;99.90;;;;;;10465024;28;20041;-61
2024/02/27 14:37:54;;;;;;;2.00;1.02;;;18.20;99.90;;;;;;10451752;28;20086;-60
2024/02/27 14:42:56;;;;;;;5.32;1.35;;;17.60;99.90;;;;;;10458806;28;20133;-61
2024/02/27 14:47:58;;;;;;;4.97;1.65;;;19.10;99.90;;;;;;10463087;28;20049;-61
2024/02/27 14:53:01;;;;;;;6.72;1.88;;;19.60;99.90;;;;;;10462445;28;20064;-59
2024/02/27 14:58:03;;;;;;;4.22;1.83;;;19.20;99.90;;;;;;10465724;28;20067;-63
2024/02/27 15:03:05;;;;;;;2.85;1.15;;;19.80;99.90;;;;;;10466668;28;21326;-61
2024/02/27 15:08:09;;;;;;;2.00;0.90;;;20.00;99.90;;;;;;10450330;28;20139;-60
2024/02/27 15:13:11;;;;;;;1.00;0.90;;;19.00;99.90;;;;;;10461838;28;20053;-62
2024/02/27 15:18:13;;;;;;;5.78;0.93;;;19.90;99.90;;;;;;10463100;28;20096;-61
2024/02/27 15:23:16;;;;;;;3.80;0.80;;;18.90;99.90;;;;;;10472900;28;20463;-61
2024/02/27 15:28:18;;;;;;;1.08;0.68;;;18.60;99.90;;;;;;10462154;28;20141;-61
2024/02/27 15:33:20;;;;;;;1.98;0.85;;;19.60;99.40;;;;;;10455519;28;20108;-62
2024/02/27 15:38:24;;;;;;;0.68;0.68;;;19.10;91.90;;;;;;10449307;28;20059;-60
2024/02/27 15:43:25;;;;;;;1.73;0.65;;;19.50;99.90;;;;;;10456559;28;20087;-61
2024/02/27 15:48:28;;;;;;;2.15;0.90;;;20.20;99.90;;;;;;10462026;28;20052;-60
2024/02/27 15:53:31;;;;;;;10.75;2.00;;;19.40;99.90;;;;;;10458419;28;20105;-61
2024/02/27 15:58:33;;;;;;;4.47;1.52;;;19.90;99.90;;;;;;10460424;28;20044;-59
2024/02/27 16:03:50;;;;;;;2.55;0.80;;;20.10;99.90;;;;;;10462374;28;20857;-60
2024/02/27 16:08:56;;;;;;;4.15;1.55;;;20.20;99.90;;;;;;10453799;28;20075;-61
2024/02/27 16:13:58;;;;;;;1.40;0.63;;;19.40;99.90;;;;;;10461123;28;20143;-60
2024/02/27 16:19:00;;;;;;;9.23;1.75;;;19.00;99.90;;;;;;10458033;28;20049;-61
2024/02/27 16:24:04;;;;;;;2.97;0.98;;;19.60;99.90;;;;;;10460050;28;20048;-60
2024/02/27 16:29:06;;;;;;;2.42;1.00;;;19.30;90.60;;;;;;10466038;28;22552;-58
2024/02/27 16:34:09;;;;;;;4.38;1.05;;;19.50;99.90;;;;;;10465915;28;20871;-58
2024/02/27 16:39:12;;;;;;;4.63;0.95;;;19.90;99.90;;;;;;10467810;28;20096;-58
2024/02/27 16:44:14;;;;;;;7.55;2.15;;;20.20;99.90;;;;;;10456007;28;20059;-60
2024/02/27 16:49:16;;;;;;;4.65;0.98;;;19.60;99.90;;;;;;10454380;28;20049;-57
2024/02/27 16:54:20;;;;;;;1.88;0.70;;;18.30;99.90;;;;;;10459645;28;20412;-58
2024/02/27 16:59:22;;;;;;;5.20;3.03;;;17.10;99.90;;;;;;10456362;28;20111;-57
2024/02/27 17:04:24;;;;;;;4.55;1.58;;;18.80;99.90;;;;;;10448362;28;20064;-57
2024/02/27 17:09:27;;;;;;;3.83;1.60;;;19.00;99.90;;;;;;10457995;28;20086;-59
2024/02/27 17:14:30;;;;;;;3.10;0.77;;;18.70;99.90;;;;;;10456651;28;20051;-58
2024/02/27 17:19:32;;;;;;;4.72;1.27;;;18.30;99.90;;;;;;10457289;28;20048;-59
2024/02/27 17:24:35;;;;;;;5.72;1.20;;;18.90;99.90;;;;;;10466692;28;20055;-58
2024/02/27 17:29:37;;;;;;;6.72;1.42;;;19.00;99.90;;;;;;10458138;28;20501;-58
2024/02/27 17:34:42;;;;;;;4.65;1.63;;;19.00;99.90;;;;;;10474043;28;20603;-57
2024/02/27 17:39:45;;;;;;;3.47;1.00;;;19.00;99.90;;;;;;10462797;28;20523;-60
2024/02/27 17:44:47;;;;;;;3.05;1.00;;;18.90;99.90;;;;;;10478131;28;20048;-61
2024/02/27 17:49:50;;;;;;;4.72;1.48;;;18.60;99.90;;;;;;10460144;28;20044;-60
2024/02/27 17:54:54;;;;;;;8.32;2.60;;;18.70;99.90;;;;;;10424857;28;20060;-59
2024/02/27 17:59:56;;;;;;;16.40;6.00;;;18.60;99.90;;;;;;10434942;28;20907;-60
2024/02/27 18:04:58;;;;;;;29.08;8.55;;;18.60;99.90;;;;;;10429145;28;20049;-60
2024/02/27 18:10:01;;;;;;;4.10;2.10;;;18.50;99.90;;;;;;10437276;28;20053;-59
2024/02/27 18:15:05;;;;;;;8.80;4.57;;;18.00;99.90;;;;;;10434038;28;20433;-61
2024/02/27 18:20:10;;;;;;;15.70;6.13;;;17.60;99.90;;;;;;10435262;28;20045;-58
2024/02/27 18:25:13;;;;;;;5.78;2.60;;;17.30;99.90;;;;;;10436973;28;20064;-62
2024/02/27 18:30:16;;;;;;;13.27;6.57;;;17.00;99.90;;;;;;10434944;28;20060;-63
2024/02/27 18:35:18;;;;;;;16.08;6.30;;;16.70;99.90;;;;;;10437687;28;20052;-61
2024/02/27 18:40:22;;;;;;;29.05;13.73;;;16.80;99.90;;;;;;10421769;28;20076;-60
2024/02/27 18:45:24;;;;;;;7.68;3.53;;;16.70;99.90;;;;;;10428380;28;20057;-59
2024/02/27 18:50:27;;;;;;;11.45;5.82;;;16.40;99.90;;;;;;10426114;28;20063;-60
2024/02/27 18:55:30;;;;;;;13.43;5.97;;;16.30;99.90;;;;;;10430105;28;20796;-61
2024/02/27 19:00:32;;;;;;;17.95;6.90;;;16.20;99.90;;;;;;10428624;28;20053;-60
2024/02/27 19:05:35;;;;;;;10.38;5.72;;;16.10;99.90;;;;;;10426170;28;20628;-61
2024/02/27 19:10:39;;;;;;;9.30;3.55;;;15.90;99.90;;;;;;10431242;28;20048;-60
2024/02/27 19:15:41;;;;;;;15.38;6.65;;;15.30;99.90;;;;;;10423829;28;20087;-62
2024/02/27 19:20:43;;;;;;;8.10;3.25;;;16.70;99.90;;;;;;10433401;28;20057;-61
2024/02/27 19:25:48;;;;;;;6.47;3.40;;;17.20;99.90;;;;;;10423662;28;20048;-61
2024/02/27 19:30:50;;;;;;;5.72;2.60;;;17.30;99.90;;;;;;10424133;28;20088;-60
2024/02/27 19:35:51;;;;;;;12.55;2.53;;;17.40;99.90;;;;;;10427219;28;20389;-60
2024/02/27 19:40:57;;;;;;;5.38;3.08;;;17.40;99.90;;;;;;10433370;28;20411;-61
2024/02/27 19:46:00;;;;;;;8.00;3.72;;;17.30;99.90;;;;;;10425210;28;20060;-62
2024/02/27 19:51:02;;;;;;;9.98;3.97;;;17.40;99.90;;;;;;10427971;28;20053;-60
2024/02/27 19:56:05;;;;;;;7.90;4.18;;;17.30;99.90;;;;;;10425308;28;20047;-60
2024/02/27 20:01:07;;;;;;;3.83;2.10;;;17.30;99.90;;;;;;10424708;28;21102;-62
2024/02/27 20:06:09;;;;;;;5.05;2.70;;;17.00;99.90;;;;;;10421121;28;20874;-60
2024/02/27 20:11:13;;;;;;;10.23;2.83;;;16.90;99.90;;;;;;10422481;28;20063;-61
2024/02/27 20:16:17;;;;;;;5.97;2.13;;;17.00;99.90;;;;;;10416932;28;20052;-62
2024/02/27 20:21:19;;;;;;;5.28;2.13;;;16.90;99.90;;;;;;10421436;28;20057;-61
2024/02/27 20:26:24;;;;;;;7.50;2.27;;;16.60;99.90;;;;;;10423670;28;20084;-61
2024/02/27 20:31:27;;;;;;;4.95;2.63;;;16.60;99.90;;;;;;10422089;28;20482;-61
2024/02/27 20:36:30;;;;;;;6.53;2.85;;;16.50;99.90;;;;;;10420225;28;20097;-61
2024/02/27 20:41:37;;;;;;;5.20;2.78;;;16.40;99.90;;;;;;10413687;28;20099;-62
2024/02/27 20:46:40;;;;;;;12.23;4.15;;;16.50;99.90;;;;;;10417314;28;20076;-61
2024/02/27 20:51:44;;;;;;;5.55;2.40;;;16.50;99.90;;;;;;10417823;28;20095;-61
2024/02/27 20:56:50;;;;;;;6.88;1.77;;;16.40;99.90;;;;;;10421597;28;20075;-61
2024/02/27 21:01:52;;;;;;;2.47;1.50;;;17.00;99.90;;;;;;10421456;28;20048;-62
2024/02/27 21:06:54;;;;;;;2.45;1.30;;;16.40;99.90;;;;;;10427898;28;20045;-64
2024/02/27 21:11:58;;;;;;;5.70;1.75;;;16.20;99.90;;;;;;10424472;28;20056;-60
2024/02/27 21:17:00;;;;;;;4.85;2.83;;;15.70;99.90;;;;;;10424740;28;20060;-61
2024/02/27 21:22:03;;;;;;;4.27;1.43;;;15.40;99.90;;;;;;10425224;28;20210;-62
2024/02/27 21:27:07;;;;;;;5.47;1.30;;;15.70;99.90;;;;;;10424269;28;20793;-61
2024/02/27 21:32:09;;;;;;;4.70;1.67;;;15.60;99.90;;;;;;10423389;28;20062;-62
2024/02/27 21:37:11;;;;;;;3.40;0.97;;;15.80;99.90;;;;;;10415999;28;20482;-60
2024/02/27 21:42:14;;;;;;;4.82;1.52;;;15.80;99.90;;;;;;10423867;28;20957;-61
2024/02/27 21:47:16;;;;;;;15.35;3.35;;;15.80;99.90;;;;;;10415666;28;20564;-60
2024/02/27 21:52:18;;;;;;;9.60;2.43;;;16.10;99.90;;;;;;10423548;28;20813;-61
2024/02/27 21:57:22;;;;;;;8.35;1.80;;;16.20;99.90;;;;;;10420073;28;20183;-61
2024/02/27 22:02:24;;;;;;;4.68;2.30;;;16.00;99.90;;;;;;10422748;28;20057;-58
2024/02/27 22:07:26;;;;;;;9.15;3.20;;;15.90;99.90;;;;;;10422982;28;20162;-60
2024/02/27 22:12:29;;;;;;;13.97;4.60;;;16.10;99.90;;;;;;10424811;28;20064;-60
2024/02/27 22:17:31;;;;;;;7.82;3.92;;;16.20;99.90;;;;;;10423839;28;20055;-61
2024/02/27 22:22:33;;;;;;;6.87;3.40;;;16.40;99.90;;;;;;10430674;28;20057;-61
2024/02/27 22:27:37;;;;;;;10.52;2.90;;;16.10;99.90;;;;;;10426951;28;20053;-61
2024/02/27 22:32:39;;;;;;;9.73;3.08;;;15.90;99.90;;;;;;10421437;28;20144;-61
2024/02/27 22:37:41;;;;;;;3.67;2.37;;;15.80;99.90;;;;;;10424881;28;20067;-63
2024/02/27 22:42:44;;;;;;;6.03;2.20;;;15.60;99.90;;;;;;10428857;28;20485;-60
2024/02/27 22:47:46;;;;;;;7.78;3.13;;;15.40;99.90;;;;;;10423930;28;20490;-60
2024/02/27 22:52:48;;;;;;;9.60;4.20;;;15.50;99.90;;;;;;10419443;28;20057;-61
2024/02/27 22:57:52;;;;;;;4.55;3.10;;;15.30;99.90;;;;;;10414498;28;20918;-62
2024/02/27 23:02:57;;;;;;;6.47;2.90;;;15.40;99.90;;;;;;10421757;28;20060;-61
2024/02/27 23:07:59;;;;;;;7.45;3.13;;;14.90;99.90;;;;;;10433956;28;20353;-61
2024/02/27 23:13:03;;;;;;;7.77;3.27;;;15.40;99.90;;;;;;10431511;28;20053;-61
2024/02/27 23:18:06;;;;;;;5.03;2.63;;;15.30;99.90;;;;;;10431904;28;20505;-61
2024/02/27 23:23:08;;;;;;;7.72;2.92;;;15.40;99.90;;;;;;10428796;28;20074;-60
2024/02/27 23:28:11;;;;;;;7.63;3.50;;;14.90;99.90;;;;;;10430925;28;20831;-61
2024/02/27 23:33:13;;;;;;;4.45;3.33;;;15.10;99.90;;;;;;10427641;28;20567;-62
2024/02/27 23:38:17;;;;;;;9.10;3.47;;;14.40;99.90;;;;;;10425714;28;20045;-62
2024/02/27 23:43:22;;;;;;;8.00;3.60;;;14.20;99.90;;;;;;10432104;28;20049;-62
2024/02/27 23:48:24;;;;;;;6.53;4.07;;;14.40;99.90;;;;;;10434168;28;20467;-60
2024/02/27 23:53:26;;;;;;;5.37;3.47;;;14.50;99.90;;;;;;10437517;28;20049;-61
2024/02/27 23:58:30;;;;;;;5.73;3.07;;;14.80;99.90;;;;;;10435123;28;20049;-61
